Time;durP1;ratioP1;P1;durP2;ratioP2;P2;SDS_P1;SDS_P2;PMS_P1;PMS_P2;Temp;Humidity;BMP_temperature;BMP_pressure;BME280_temperature;BME280_humidity;BME280_pressure;Samples;Min_cycle;Max_cycle;Signal;HPM_P1;HPM_P2
2022/06/13 00:01:19;;;;;;;7.50;1.38;;;;;;;18.05;57.97;98871.75;4110160;28;20319;-60
2022/06/13 00:03:21;;;;;;;1.50;1.05;;;;;;;18.06;57.52;98861.50;4110008;28;20238;-61
2022/06/13 00:05:23;;;;;;;1.33;0.80;;;;;;;18.04;57.64;98866.53;4123625;28;20206;-61
2022/06/13 00:07:25;;;;;;;1.50;0.90;;;;;;;18.04;57.93;98866.53;4105727;28;20203;-61
2022/06/13 00:09:27;;;;;;;2.55;0.80;;;;;;;18.02;57.66;98865.97;4122661;28;20218;-60
2022/06/13 00:11:28;;;;;;;2.50;1.05;;;;;;;17.96;57.71;98861.56;4109384;28;20294;-61
2022/06/13 00:13:30;;;;;;;2.55;0.93;;;;;;;17.93;57.71;98851.09;4094358;29;20227;-61
2022/06/13 00:15:32;;;;;;;1.23;1.00;;;;;;;17.88;58.14;98868.59;4105208;28;20222;-61
2022/06/13 00:17:33;;;;;;;3.85;1.40;;;;;;;17.80;58.55;98865.59;4108680;28;20274;-61
2022/06/13 00:19:35;;;;;;;1.75;1.10;;;;;;;17.70;58.78;98862.88;4109503;28;20242;-62
2022/06/13 00:21:38;;;;;;;2.25;1.00;;;;;;;17.68;58.58;98870.66;4104592;28;20497;-61
2022/06/13 00:23:39;;;;;;;2.67;0.90;;;;;;;17.68;58.51;98878.97;4091514;28;20219;-61
2022/06/13 00:25:41;;;;;;;2.70;1.15;;;;;;;17.65;58.77;98876.78;4108584;28;20203;-61
2022/06/13 00:27:43;;;;;;;1.90;1.20;;;;;;;17.62;58.80;98877.34;4124775;28;20209;-62
2022/06/13 00:29:47;;;;;;;1.50;0.98;;;;;;;17.63;58.31;98884.53;4109412;28;20203;-61
2022/06/13 00:31:49;;;;;;;3.58;1.10;;;;;;;17.61;58.66;98892.28;4111330;28;20534;-62
2022/06/13 00:33:51;;;;;;;3.80;1.30;;;;;;;17.60;58.70;98890.63;4122683;28;20719;-62
2022/06/13 00:35:53;;;;;;;9.40;2.67;;;;;;;17.55;58.78;98887.91;4108691;28;20313;-61
2022/06/13 00:37:55;;;;;;;6.07;1.52;;;;;;;17.40;59.20;98871.38;4107356;28;20203;-62
2022/06/13 00:39:57;;;;;;;3.85;1.80;;;;;;;17.43;59.24;98879.09;4108375;28;20277;-60
2022/06/13 00:41:59;;;;;;;2.72;1.15;;;;;;;17.45;59.50;98893.50;4108679;28;20309;-60
2022/06/13 00:44:00;;;;;;;3.10;1.08;;;;;;;17.48;59.58;98892.91;4123951;28;20256;-61
2022/06/13 00:46:02;;;;;;;1.23;1.00;;;;;;;17.45;59.57;98899.03;4108838;28;20233;-61
2022/06/13 00:48:05;;;;;;;4.43;1.30;;;;;;;17.45;59.64;98904.56;4123637;28;20284;-61
2022/06/13 00:50:09;;;;;;;1.70;1.23;;;;;;;17.45;59.41;98904.56;4094682;28;20211;-60
2022/06/13 00:52:45;;;;;;;1.98;1.33;;;;;;;17.49;59.33;98906.47;4095616;28;20199;-62
2022/06/13 00:54:49;;;;;;;3.13;1.15;;;;;;;17.37;59.31;98918.97;4104587;28;20486;-61
2022/06/13 00:56:51;;;;;;;3.08;1.48;;;;;;;17.34;59.17;98908.47;4120520;28;21072;-61
2022/06/13 00:59:01;;;;;;;1.50;1.05;;;;;;;17.43;59.11;98907.63;4106372;28;20210;-62
2022/06/13 01:01:03;;;;;;;4.68;1.30;;;;;;;17.35;59.18;98910.09;4121702;28;20638;-61
2022/06/13 01:03:06;;;;;;;2.80;1.35;;;;;;;17.43;58.77;98904.00;4120975;28;20242;-61
2022/06/13 01:05:08;;;;;;;3.63;1.10;;;;;;;17.38;58.57;98904.06;4123080;28;20219;-61
2022/06/13 01:07:10;;;;;;;2.05;1.42;;;;;;;17.30;58.44;98897.13;4107447;28;20214;-61
2022/06/13 01:09:14;;;;;;;3.38;1.10;;;;;;;17.30;58.39;98901.81;4122935;28;20345;-61
2022/06/13 01:11:21;;;;;;;3.70;1.10;;;;;;;17.28;58.41;98898.53;4122486;28;20715;-61
2022/06/13 01:13:25;;;;;;;2.47;1.27;;;;;;;17.39;58.47;98902.94;4109373;28;20759;-61
2022/06/13 01:15:53;;;;;;;2.17;1.55;;;;;;;17.44;58.39;98898.19;4097457;28;20218;-60
2022/06/13 01:18:10;;;;;;;3.85;1.17;;;;;;;17.34;58.47;98891.84;4107832;28;20287;-61
2022/06/13 01:20:21;;;;;;;4.45;1.25;;;;;;;17.37;58.35;98897.69;4123426;28;20198;-61
2022/06/13 01:22:57;;;;;;;3.05;0.98;;;;;;;17.32;58.62;98905.16;4122450;28;20233;-61
2022/06/13 01:25:20;;;;;;;11.02;1.58;;;;;;;17.28;58.24;98906.81;4121519;28;20253;-60
2022/06/13 01:27:24;;;;;;;2.10;1.30;;;;;;;17.28;58.45;98904.06;4121415;28;20210;-61
2022/06/13 01:30:00;;;;;;;3.55;1.45;;;;;;;17.30;58.47;98907.34;4101647;28;20207;-62
2022/06/13 01:32:26;;;;;;;2.83;1.30;;;;;;;17.32;58.53;98916.22;4121718;28;20253;-62
2022/06/13 01:34:43;;;;;;;2.75;1.40;;;;;;;17.26;58.61;98906.28;4126320;28;20340;-61
2022/06/13 01:36:54;;;;;;;3.33;1.63;;;;;;;17.25;58.79;98905.44;4110966;28;20211;-60
2022/06/13 01:39:27;;;;;;;8.45;2.22;;;;;;;17.18;58.68;98909.66;4106280;28;20210;-61
2022/06/13 01:42:05;;;;;;;3.08;0.93;;;;;;;17.14;58.84;98903.03;4103187;28;20218;-61
2022/06/13 01:44:15;;;;;;;3.03;2.22;;;;;;;17.08;58.81;98904.97;4093277;28;20357;-61
2022/06/13 01:46:24;;;;;;;4.47;1.73;;;;;;;17.03;59.06;98906.91;4122859;28;20775;-61
2022/06/13 01:48:38;;;;;;;6.07;1.42;;;;;;;17.00;59.10;98907.50;4090918;28;20297;-62
2022/06/13 01:50:43;;;;;;;4.28;1.27;;;;;;;16.95;59.06;98907.50;4121049;28;20264;-60
2022/06/13 01:52:49;;;;;;;4.72;1.50;;;;;;;16.88;59.24;98898.69;4102163;28;20203;-60
2022/06/13 01:54:59;;;;;;;4.00;1.50;;;;;;;16.87;59.37;98913.63;4107090;28;20222;-60
2022/06/13 01:57:30;;;;;;;2.28;1.13;;;;;;;16.83;59.28;98898.69;4094968;28;20207;-61
2022/06/13 01:59:41;;;;;;;4.75;1.40;;;;;;;16.79;59.40;98905.91;4122058;28;20705;-61
2022/06/13 02:01:50;;;;;;;8.23;1.42;;;;;;;16.82;59.32;98902.56;4106401;28;20202;-61
2022/06/13 02:04:12;;;;;;;5.57;1.60;;;;;;;16.82;59.46;98897.03;4109680;28;20277;-61
2022/06/13 02:06:24;;;;;;;7.35;1.70;;;;;;;16.82;59.38;98902.56;4108851;28;20241;-62
2022/06/13 02:08:30;;;;;;;6.25;1.70;;;;;;;16.78;59.58;98901.50;4122190;28;20264;-61
2022/06/13 02:10:36;;;;;;;2.88;1.35;;;;;;;16.77;59.65;98891.50;4106377;28;20273;-61
2022/06/13 02:12:38;;;;;;;4.18;1.70;;;;;;;16.75;59.51;98898.47;4123071;28;21284;-61
2022/06/13 02:15:07;;;;;;;6.63;1.52;;;;;;;16.72;59.47;98899.84;4122237;28;20222;-62
2022/06/13 02:17:17;;;;;;;2.90;1.40;;;;;;;16.73;59.57;98901.50;4099457;28;20325;-62
2022/06/13 02:19:22;;;;;;;2.85;1.40;;;;;;;16.70;59.74;98901.22;4101091;28;20249;-62
2022/06/13 02:21:36;;;;;;;4.57;1.48;;;;;;;16.61;59.86;98903.72;4119647;28;20272;-62
2022/06/13 02:23:43;;;;;;;4.32;1.60;;;;;;;16.67;59.88;98902.63;4107373;28;20234;-62
2022/06/13 02:25:51;;;;;;;5.95;1.27;;;;;;;16.60;59.90;98907.59;4122284;28;20206;-62
2022/06/13 02:28:05;;;;;;;2.58;1.20;;;;;;;16.58;60.19;98898.78;4088437;28;20207;-62
2022/06/13 02:30:13;;;;;;;1.40;1.10;;;;;;;16.58;60.11;98901.53;4111505;28;20210;-62
2022/06/13 02:32:23;;;;;;;3.70;1.50;;;;;;;16.56;60.01;98900.97;4094520;28;20297;-62
2022/06/13 02:34:30;;;;;;;3.75;1.40;;;;;;;16.52;60.09;98899.88;4092322;28;20326;-62
2022/06/13 02:36:38;;;;;;;2.88;1.20;;;;;;;16.43;60.24;98896.00;4121543;28;20198;-62
2022/06/13 02:38:42;;;;;;;3.08;1.77;;;;;;;16.14;61.01;98894.91;4108085;28;20195;-62
2022/06/13 02:40:51;;;;;;;4.55;1.77;;;;;;;15.90;61.79;98891.03;4103259;28;20222;-62
2022/06/13 02:43:08;;;;;;;5.53;1.77;;;;;;;15.98;61.59;98896.03;4121752;28;20209;-61
2022/06/13 02:45:15;;;;;;;4.85;1.70;;;;;;;15.91;61.96;98889.91;4119313;28;20685;-62
2022/06/13 02:47:21;;;;;;;2.67;1.75;;;;;;;15.67;62.51;98899.84;4104583;28;22253;-61
2022/06/13 02:49:37;;;;;;;4.78;1.42;;;;;;;15.65;62.60;98893.78;4103117;28;20238;-62
2022/06/13 02:52:03;;;;;;;3.15;1.77;;;;;;;15.65;62.59;98888.25;4104880;28;20219;-62
2022/06/13 02:54:24;;;;;;;7.93;1.73;;;;;;;15.76;62.26;98889.91;4099867;28;20595;-61
2022/06/13 02:57:23;;;;;;;5.25;2.00;;;;;;;15.81;62.18;98894.59;4108196;28;20731;-62
2022/06/13 02:59:18;;;;;;;1.65;1.40;;;;;;;15.87;62.15;98896.28;4112088;28;20207;-61
2022/06/13 03:01:25;;;;;;;3.50;1.20;;;;;;;15.88;62.25;98904.28;4119497;28;20570;-62
2022/06/13 03:03:30;;;;;;;5.00;1.70;;;;;;;15.89;61.99;98900.41;4091844;28;20282;-62
2022/06/13 03:05:41;;;;;;;6.07;1.65;;;;;;;15.91;61.91;98909.25;4104318;28;20210;-62
2022/06/13 03:07:59;;;;;;;3.70;1.63;;;;;;;15.91;62.21;98908.44;4120583;28;20212;-62
2022/06/13 03:10:06;;;;;;;3.88;1.70;;;;;;;15.87;62.21;98905.38;4104922;28;20336;-62
2022/06/13 03:12:16;;;;;;;2.40;1.67;;;;;;;15.87;62.23;98916.44;4105887;28;20214;-62
2022/06/13 03:14:26;;;;;;;2.30;1.33;;;;;;;15.88;62.44;98917.25;4122720;28;20277;-62
2022/06/13 03:16:37;;;;;;;3.70;1.60;;;;;;;15.82;62.37;98912.84;4106543;28;20217;-62
2022/06/13 03:18:45;;;;;;;4.30;1.83;;;;;;;15.68;62.72;98917.22;4118850;28;20842;-62
2022/06/13 03:21:13;;;;;;;3.65;1.52;;;;;;;15.63;63.06;98915.28;4109415;28;20214;-62
2022/06/13 03:23:21;;;;;;;3.92;1.45;;;;;;;15.60;62.89;98918.59;4099626;28;20235;-62
2022/06/13 03:25:31;;;;;;;3.67;1.45;;;;;;;15.58;63.07;98918.03;4106189;28;20798;-62
2022/06/13 03:27:38;;;;;;;3.33;1.48;;;;;;;15.58;63.20;98929.09;4091939;28;20207;-62
2022/06/13 03:29:48;;;;;;;4.03;1.40;;;;;;;15.49;63.26;98922.41;4116629;28;20681;-62
2022/06/13 03:31:57;;;;;;;1.65;1.40;;;;;;;15.45;63.16;98929.59;4116793;28;20214;-62
2022/06/13 03:34:05;;;;;;;5.78;1.90;;;;;;;15.47;63.47;98941.19;4104304;28;20222;-62
2022/06/13 03:36:33;;;;;;;1.77;1.67;;;;;;;15.46;63.55;98936.75;4106965;28;20206;-62
2022/06/13 03:38:39;;;;;;;5.10;1.67;;;;;;;15.43;63.35;98937.28;4113944;28;20746;-62
2022/06/13 03:40:46;;;;;;;2.90;1.55;;;;;;;15.41;63.44;98946.94;4104070;28;20842;-62
2022/06/13 03:42:55;;;;;;;7.40;1.48;;;;;;;15.38;63.50;98948.31;4120386;28;20696;-62
2022/06/13 03:45:04;;;;;;;4.30;1.88;;;;;;;15.15;64.74;98947.88;4108334;28;20254;-63
2022/06/13 03:47:11;;;;;;;1.80;1.00;;;;;;;15.16;64.26;98949.56;4123386;28;20202;-62
2022/06/13 03:49:23;;;;;;;5.68;1.42;;;;;;;15.24;64.05;98944.34;4100349;28;20214;-62
2022/06/13 03:51:33;;;;;;;3.83;1.38;;;;;;;15.28;63.69;98953.75;4108128;28;20213;-62
2022/06/13 03:53:40;;;;;;;2.38;1.17;;;;;;;15.28;63.88;98956.50;4089285;28;20226;-63
2022/06/13 03:55:47;;;;;;;5.07;2.42;;;;;;;15.19;64.38;98954.53;4106307;28;20689;-62
2022/06/13 03:58:17;;;;;;;5.38;1.67;;;;;;;15.12;64.32;98949.28;4118684;28;20205;-62
2022/06/13 04:00:45;;;;;;;3.40;1.67;;;;;;;15.15;64.08;98950.66;4103885;28;20215;-62
2022/06/13 04:02:47;;;;;;;2.35;1.50;;;;;;;15.17;63.90;98956.75;4092420;28;20783;-62
2022/06/13 04:04:50;;;;;;;3.63;1.67;;;;;;;15.18;64.27;98948.22;4118182;28;22168;-62
2022/06/13 04:06:55;;;;;;;3.33;1.58;;;;;;;15.21;64.19;98963.34;4119486;28;20314;-62
2022/06/13 04:08:58;;;;;;;3.58;1.58;;;;;;;15.19;63.87;98965.56;4107034;28;20700;-63
2022/06/13 04:11:05;;;;;;;2.30;1.30;;;;;;;15.17;64.11;98963.06;4115589;28;20223;-62
2022/06/13 04:13:43;;;;;;;2.90;1.60;;;;;;;15.17;64.31;98963.06;4104163;28;20206;-62
2022/06/13 04:15:48;;;;;;;1.60;1.38;;;;;;;15.17;64.30;98965.03;4104104;28;20598;-62
2022/06/13 04:18:02;;;;;;;3.63;1.85;;;;;;;15.11;64.52;98958.63;4119323;28;20210;-62
2022/06/13 04:20:13;;;;;;;3.70;1.67;;;;;;;15.12;64.47;98965.81;4101051;28;20206;-62
2022/06/13 04:22:18;;;;;;;3.90;1.65;;;;;;;15.11;64.54;98964.13;4100516;28;20258;-62
2022/06/13 04:24:37;;;;;;;12.30;1.70;;;;;;;15.09;64.66;98965.53;4107042;28;20238;-62
2022/06/13 04:26:44;;;;;;;2.83;2.05;;;;;;;15.10;64.46;98973.50;4102768;28;20211;-62
2022/06/13 04:29:04;;;;;;;7.18;1.70;;;;;;;15.10;64.67;98968.00;4100208;28;20277;-61
2022/06/13 04:31:07;;;;;;;5.65;2.13;;;;;;;15.12;64.75;98976.00;4105744;28;20198;-61
2022/06/13 04:33:14;;;;;;;4.28;1.83;;;;;;;15.14;64.73;98977.41;4098916;28;20207;-62
2022/06/13 04:35:17;;;;;;;3.80;1.70;;;;;;;15.14;64.88;98971.88;4120912;28;20573;-61
2022/06/13 04:37:22;;;;;;;3.30;2.13;;;;;;;15.16;64.96;98977.97;4109715;28;20521;-61
2022/06/13 04:39:29;;;;;;;3.25;1.75;;;;;;;15.17;64.87;98982.38;4110069;28;20261;-61
2022/06/13 04:41:32;;;;;;;4.32;1.50;;;;;;;15.19;64.49;98985.72;4093381;28;20207;-61
2022/06/13 04:43:38;;;;;;;3.97;1.35;;;;;;;15.24;64.49;98996.75;4119129;28;20262;-61
2022/06/13 04:46:12;;;;;;;3.38;1.48;;;;;;;15.26;64.61;98988.22;4110984;28;20239;-61
2022/06/13 04:48:15;;;;;;;3.00;2.17;;;;;;;15.27;64.50;98996.22;4108785;28;20293;-62
2022/06/13 04:50:21;;;;;;;5.45;1.88;;;;;;;15.29;64.39;98993.22;4110517;28;20210;-62
2022/06/13 04:52:30;;;;;;;4.18;2.22;;;;;;;15.33;64.57;98995.19;4110024;28;20740;-62
2022/06/13 04:54:32;;;;;;;2.53;1.65;;;;;;;15.33;64.73;98989.66;4111067;28;20230;-61
2022/06/13 04:56:34;;;;;;;3.08;1.67;;;;;;;15.28;65.06;98991.50;4121936;28;20209;-62
2022/06/13 04:58:38;;;;;;;3.28;1.83;;;;;;;15.31;64.75;98991.81;4108696;28;20207;-62
2022/06/13 05:00:40;;;;;;;2.38;1.80;;;;;;;15.35;64.55;98998.50;4103704;28;21420;-62
2022/06/13 05:02:45;;;;;;;3.20;1.58;;;;;;;15.40;64.38;99001.28;4113272;28;20211;-62
2022/06/13 05:04:46;;;;;;;4.03;2.40;;;;;;;15.53;64.09;99003.53;4116899;28;20222;-61
2022/06/13 05:06:53;;;;;;;4.95;1.80;;;;;;;15.28;64.50;99014.44;4118150;28;20226;-61
2022/06/13 05:08:58;;;;;;;8.45;2.78;;;;;;;15.32;64.46;99015.59;4132688;28;20244;-61
2022/06/13 05:11:24;;;;;;;3.42;1.70;;;;;;;15.41;64.24;99007.59;4109217;28;20252;-61
2022/06/13 05:13:26;;;;;;;2.72;1.83;;;;;;;15.37;64.44;99007.31;4111654;28;20222;-62
2022/06/13 05:15:32;;;;;;;3.38;1.98;;;;;;;15.50;64.22;99006.00;4109365;28;20218;-62
2022/06/13 05:17:56;;;;;;;2.90;1.85;;;;;;;15.49;63.89;99005.16;4115715;28;20199;-61
2022/06/13 05:20:07;;;;;;;3.97;1.98;;;;;;;15.66;63.34;99004.97;4127472;28;20531;-61
2022/06/13 05:22:50;;;;;;;4.18;1.80;;;;;;;15.64;63.21;99013.50;4125893;28;20213;-61
2022/06/13 05:25:08;;;;;;;4.63;1.63;;;;;;;15.77;62.54;99006.66;4118627;28;20207;-61
2022/06/13 05:27:10;;;;;;;2.92;1.55;;;;;;;15.92;62.41;99012.22;4128352;28;20688;-60
2022/06/13 05:29:11;;;;;;;4.20;2.17;;;;;;;16.16;61.77;99005.91;4113868;28;20210;-61
2022/06/13 05:31:19;;;;;;;4.50;1.38;;;;;;;16.28;61.37;99003.72;4123025;28;20210;-61
2022/06/13 05:33:35;;;;;;;6.60;1.45;;;;;;;16.42;60.74;99004.88;4124502;28;20226;-61
2022/06/13 05:35:37;;;;;;;3.08;1.40;;;;;;;16.52;60.73;99010.41;4110550;28;20281;-62
2022/06/13 05:37:39;;;;;;;4.13;2.00;;;;;;;16.65;60.55;99014.53;4124726;28;20677;-61
2022/06/13 05:39:42;;;;;;;3.78;1.50;;;;;;;16.73;60.54;99019.50;4112304;28;20217;-62
2022/06/13 05:41:44;;;;;;;3.88;1.70;;;;;;;16.92;61.05;99019.50;4126695;28;20715;-61
2022/06/13 05:43:46;;;;;;;4.97;1.75;;;;;;;16.86;59.98;99011.50;4104624;28;20265;-61
2022/06/13 05:45:50;;;;;;;14.65;1.65;;;;;;;17.00;60.17;99018.09;4110407;28;20214;-61
2022/06/13 05:47:56;;;;;;;2.85;1.85;;;;;;;17.22;60.61;99027.75;4107088;28;20239;-62
2022/06/13 05:49:58;;;;;;;2.00;1.27;;;;;;;17.16;58.97;99017.78;4125546;28;20210;-61
2022/06/13 05:52:00;;;;;;;4.43;1.40;;;;;;;17.38;58.69;99025.81;4106601;28;20246;-61
2022/06/13 05:54:02;;;;;;;5.90;1.67;;;;;;;17.61;59.13;99019.63;4125550;28;20269;-62
2022/06/13 05:56:04;;;;;;;5.03;1.40;;;;;;;17.74;58.54;99024.53;4127143;28;20210;-62
2022/06/13 05:58:06;;;;;;;3.35;1.67;;;;;;;17.87;58.55;99035.00;4109652;28;20211;-62
2022/06/13 06:00:14;;;;;;;6.35;1.90;;;;;;;17.85;56.92;99032.50;4105856;28;20207;-61
2022/06/13 06:02:16;;;;;;;3.92;1.40;;;;;;;18.08;57.56;99031.84;4109345;28;20777;-61
2022/06/13 06:04:18;;;;;;;8.38;1.60;;;;;;;18.06;56.95;99038.78;4107905;28;20242;-61
2022/06/13 06:06:23;;;;;;;2.75;1.42;;;;;;;18.10;57.03;99034.31;4113816;28;20256;-61
2022/06/13 06:08:30;;;;;;;4.43;1.50;;;;;;;18.24;56.46;99040.91;4122402;28;20229;-61
2022/06/13 06:10:34;;;;;;;5.50;1.75;;;;;;;18.49;56.63;99037.97;4140625;28;21015;-61
2022/06/13 06:12:38;;;;;;;2.92;1.00;;;;;;;18.63;56.92;99036.19;4124374;28;20209;-61
2022/06/13 06:14:40;;;;;;;9.05;1.52;;;;;;;18.52;55.96;99031.88;4121846;28;20219;-61
2022/06/13 06:16:42;;;;;;;2.53;2.10;;;;;;;18.71;56.12;99024.50;4139949;28;20244;-61
2022/06/13 06:18:44;;;;;;;3.38;1.02;;;;;;;18.88;55.36;99036.00;4120125;28;20475;-61
2022/06/13 06:20:49;;;;;;;7.40;0.95;;;;;;;18.99;55.48;99037.56;4139516;28;20202;-61
2022/06/13 06:22:51;;;;;;;5.13;1.95;;;;;;;19.15;54.40;99042.69;4137778;28;20248;-61
2022/06/13 06:24:52;;;;;;;3.95;1.65;;;;;;;18.86;54.29;99038.25;4127794;28;20222;-61
2022/06/13 06:26:55;;;;;;;3.50;1.55;;;;;;;19.00;54.31;99044.78;4124988;28;20259;-61
2022/06/13 06:28:56;;;;;;;2.85;1.70;;;;;;;19.18;55.56;99044.84;4126674;28;20206;-61
2022/06/13 06:30:59;;;;;;;5.78;1.30;;;;;;;19.23;54.94;99055.09;4127118;28;20206;-61
2022/06/13 06:33:01;;;;;;;4.55;1.67;;;;;;;19.28;54.32;99057.84;4123633;28;20728;-61
2022/06/13 06:35:04;;;;;;;4.63;1.50;;;;;;;19.44;54.91;99059.34;4117874;28;20199;-61
2022/06/13 06:37:05;;;;;;;5.05;1.88;;;;;;;19.49;54.36;99059.28;4139149;28;20271;-61
2022/06/13 06:39:07;;;;;;;5.10;1.42;;;;;;;19.49;53.86;99059.28;4125227;28;20212;-61
2022/06/13 06:41:09;;;;;;;5.10;1.73;;;;;;;19.53;53.52;99060.34;4125544;28;20297;-61
2022/06/13 06:43:11;;;;;;;1.88;1.40;;;;;;;19.46;53.94;99059.88;4121659;28;20240;-61
2022/06/13 06:45:13;;;;;;;9.20;1.35;;;;;;;19.46;52.62;99057.09;4138987;28;20226;-61
2022/06/13 06:47:15;;;;;;;3.40;1.60;;;;;;;19.06;54.16;99049.16;4107400;28;20210;-61
2022/06/13 06:49:16;;;;;;;3.55;1.70;;;;;;;19.44;53.92;99062.13;4126817;28;20206;-61
2022/06/13 06:51:19;;;;;;;8.75;1.90;;;;;;;19.43;52.04;99066.00;4123447;28;20758;-62
2022/06/13 06:53:24;;;;;;;5.03;1.38;;;;;;;19.53;53.61;99061.19;4139203;28;20249;-62
2022/06/13 07:00:09;;;;;;;3.85;1.40;;;;;;;20.00;51.88;99060.34;4136898;28;20220;-61
2022/06/13 07:02:11;;;;;;;3.08;1.73;;;;;;;20.08;52.21;99062.47;4137964;28;20240;-62
2022/06/13 07:04:13;;;;;;;6.40;1.63;;;;;;;20.27;51.83;99061.41;4123152;28;20241;-60
2022/06/13 07:06:15;;;;;;;6.57;2.20;;;;;;;20.34;51.78;99066.56;4133526;28;20213;-60
2022/06/13 07:08:17;;;;;;;5.53;1.85;;;;;;;20.16;50.43;99067.38;4112831;28;20209;-60
2022/06/13 07:10:19;;;;;;;2.47;1.30;;;;;;;20.36;51.60;99070.72;4119341;28;20217;-60
2022/06/13 07:12:21;;;;;;;4.40;1.70;;;;;;;20.50;51.39;99059.69;4115389;28;20252;-60
2022/06/13 07:14:25;;;;;;;6.57;1.13;;;;;;;20.62;50.46;99068.38;4136301;28;21028;-60
2022/06/13 07:16:27;;;;;;;2.50;1.23;;;;;;;20.61;49.17;99066.72;4133959;28;20201;-59
2022/06/13 07:18:29;;;;;;;2.17;1.02;;;;;;;20.69;50.33;99066.03;4119421;28;20233;-60
2022/06/13 07:20:31;;;;;;;2.88;0.90;;;;;;;20.93;49.62;99064.00;4119906;28;20264;-60
2022/06/13 07:22:32;;;;;;;13.82;1.05;;;;;;;20.89;47.82;99062.94;4112357;28;20212;-60
2022/06/13 07:24:34;;;;;;;4.13;1.13;;;;;;;20.99;48.63;99068.38;4106064;28;20233;-61
2022/06/13 07:26:36;;;;;;;6.85;1.48;;;;;;;20.99;49.62;99063.59;4119524;28;21137;-61
2022/06/13 07:28:38;;;;;;;4.95;1.52;;;;;;;21.22;47.75;99065.44;4118433;28;20273;-60
2022/06/13 07:30:40;;;;;;;3.38;1.13;;;;;;;21.36;47.55;99073.81;4124051;28;20749;-61
2022/06/13 07:32:43;;;;;;;5.05;1.30;;;;;;;21.38;47.90;99074.34;4126866;28;20205;-61
2022/06/13 07:34:47;;;;;;;4.13;1.30;;;;;;;21.43;46.80;99077.06;4119317;28;20296;-60
2022/06/13 07:36:51;;;;;;;3.70;1.30;;;;;;;21.51;47.23;99070.78;4137671;28;20333;-60
2022/06/13 07:38:53;;;;;;;3.72;1.30;;;;;;;21.54;46.95;99072.94;4138241;28;20205;-61
2022/06/13 07:40:59;;;;;;;2.67;1.02;;;;;;;21.46;46.51;99070.84;4121067;28;20208;-60
2022/06/13 07:43:02;;;;;;;14.10;1.60;;;;;;;21.76;46.99;99073.06;4120891;28;20683;-61
2022/06/13 07:45:05;;;;;;;4.97;1.50;;;;;;;21.68;45.83;99074.63;4122876;28;20703;-60
2022/06/13 07:47:07;;;;;;;6.35;1.27;;;;;;;21.97;46.42;99074.34;4125375;28;21337;-61
2022/06/13 07:49:08;;;;;;;6.50;1.67;;;;;;;21.87;46.01;99074.53;4125148;28;20292;-61
2022/06/13 07:51:10;;;;;;;3.60;2.35;;;;;;;21.96;47.42;99073.50;4137181;28;20201;-61
2022/06/13 07:53:12;;;;;;;5.72;1.35;;;;;;;22.15;45.71;99076.16;4122379;28;20315;-61
2022/06/13 07:55:14;;;;;;;4.13;0.90;;;;;;;22.19;44.04;99066.06;4141857;28;20212;-60
2022/06/13 07:57:15;;;;;;;3.95;1.20;;;;;;;22.26;44.74;99072.03;4140148;28;20209;-61
2022/06/13 07:59:21;;;;;;;2.92;1.00;;;;;;;21.49;44.42;99067.44;4124241;28;20198;-60
2022/06/13 08:01:23;;;;;;;3.00;1.15;;;;;;;21.67;44.69;99067.41;4121813;28;20302;-60
2022/06/13 08:03:28;;;;;;;3.63;1.27;;;;;;;22.16;46.46;99072.25;4139847;28;20261;-60
2022/06/13 08:05:30;;;;;;;3.85;0.95;;;;;;;22.36;44.88;99055.06;4126532;28;20267;-60
2022/06/13 08:07:32;;;;;;;2.10;0.90;;;;;;;22.40;45.77;99062.50;4134321;28;20280;-60
2022/06/13 08:09:34;;;;;;;2.08;0.90;;;;;;;22.45;42.96;99072.75;4121797;28;20307;-60
2022/06/13 08:11:40;;;;;;;2.83;0.98;;;;;;;22.71;43.73;99073.81;4126076;28;20264;-60
2022/06/13 08:13:42;;;;;;;2.70;1.17;;;;;;;22.68;41.88;99074.44;4125673;28;20225;-60
2022/06/13 08:15:44;;;;;;;3.83;1.20;;;;;;;22.52;42.34;99075.94;4141937;28;20314;-60
2022/06/13 08:17:45;;;;;;;2.05;0.95;;;;;;;22.66;42.28;99069.19;4140843;28;20241;-60
2022/06/13 08:19:47;;;;;;;2.42;1.30;;;;;;;22.53;42.63;99072.00;4140029;28;20225;-60
2022/06/13 08:21:51;;;;;;;2.83;1.25;;;;;;;22.66;43.16;99066.41;4138737;28;20568;-60
2022/06/13 08:23:53;;;;;;;3.90;1.13;;;;;;;22.65;43.40;99072.28;4140975;28;20225;-59
2022/06/13 08:25:54;;;;;;;1.58;1.13;;;;;;;22.66;41.22;99065.56;4110222;28;20198;-59
2022/06/13 08:27:57;;;;;;;2.53;1.10;;;;;;;22.81;43.28;99059.59;4120026;28;20614;-60
2022/06/13 08:29:59;;;;;;;3.40;1.33;;;;;;;23.26;41.96;99066.88;4128974;28;20209;-60
2022/06/13 08:32:01;;;;;;;5.60;1.63;;;;;;;23.29;42.62;99071.81;4142705;28;20279;-60
2022/06/13 08:34:04;;;;;;;1.80;1.33;;;;;;;23.45;41.72;99073.09;4138502;28;20657;-60
2022/06/13 08:36:06;;;;;;;17.80;1.98;;;;;;;23.63;41.33;99070.03;4126551;28;20328;-60
2022/06/13 08:38:08;;;;;;;3.53;0.82;;;;;;;23.55;39.94;99067.19;4125951;28;20213;-59
2022/06/13 08:40:11;;;;;;;1.65;0.85;;;;;;;23.40;38.68;99070.41;4142172;28;20205;-60
2022/06/13 08:42:33;;;;;;;4.65;1.08;;;;;;;22.60;40.14;99067.66;4139079;28;20204;-60
2022/06/13 08:45:02;;;;;;;2.65;0.75;;;;;;;23.10;40.60;99065.59;4128716;28;20320;-60
2022/06/13 08:47:23;;;;;;;7.30;1.80;;;;;;;23.51;40.99;99071.81;4126001;28;20212;-60
2022/06/13 08:49:40;;;;;;;1.35;0.60;;;;;;;23.65;38.88;99072.53;4140374;28;20723;-60
2022/06/13 08:51:46;;;;;;;3.22;1.45;;;;;;;23.78;38.05;99066.81;4125292;28;20304;-60
2022/06/13 08:53:54;;;;;;;2.08;0.75;;;;;;;24.00;38.57;99064.81;4122370;28;20812;-60
2022/06/13 08:56:03;;;;;;;5.45;0.90;;;;;;;23.97;38.25;99069.41;4139744;28;20259;-61
2022/06/13 08:58:24;;;;;;;1.58;0.82;;;;;;;23.88;37.70;99071.34;4139755;28;20208;-60
2022/06/13 09:00:30;;;;;;;4.40;1.27;;;;;;;24.09;38.44;99071.28;4144201;28;20201;-61
2022/06/13 09:02:38;;;;;;;1.58;0.90;;;;;;;24.27;37.64;99074.94;4140259;28;20208;-61
2022/06/13 09:04:44;;;;;;;4.32;1.15;;;;;;;24.35;38.18;99069.38;4141355;28;20388;-60
2022/06/13 09:07:07;;;;;;;2.75;1.02;;;;;;;24.40;38.23;99069.19;4124881;28;20241;-60
2022/06/13 09:09:29;;;;;;;4.30;1.17;;;;;;;24.45;38.86;99076.63;4140797;28;20200;-60
2022/06/13 09:11:56;;;;;;;6.10;1.13;;;;;;;24.81;38.88;99086.38;4135659;28;20205;-60
2022/06/13 09:14:38;;;;;;;2.08;1.17;;;;;;;24.91;38.39;99077.69;4139914;28;20220;-60
2022/06/13 09:16:43;;;;;;;3.75;0.98;;;;;;;24.76;39.08;99089.38;4079785;29;20223;-60
2022/06/13 09:18:49;;;;;;;1.45;0.93;;;;;;;24.09;38.62;99085.25;4098014;28;20202;-59
2022/06/13 09:21:09;;;;;;;3.28;0.95;;;;;;;23.28;38.48;99084.13;4095051;28;20242;-60
2022/06/13 09:23:32;;;;;;;2.67;1.00;;;;;;;23.06;38.41;99078.53;4137373;28;20205;-60
2022/06/13 09:26:10;;;;;;;2.53;1.15;;;;;;;22.74;40.07;99087.97;4139829;28;20229;-60
2022/06/13 09:28:28;;;;;;;2.20;1.23;;;;;;;23.34;40.96;99089.28;4139029;28;20209;-60
2022/06/13 09:30:34;;;;;;;2.92;0.93;;;;;;;23.76;39.82;99085.09;4138014;28;20243;-60
2022/06/13 09:32:40;;;;;;;2.22;0.80;;;;;;;23.96;38.83;99084.56;4107452;28;20199;-60
2022/06/13 09:34:47;;;;;;;3.53;0.77;;;;;;;24.35;36.94;99083.38;4123979;28;20229;-60
2022/06/13 09:37:18;;;;;;;2.83;1.00;;;;;;;24.17;37.58;99087.25;4138754;28;20255;-60
2022/06/13 09:39:20;;;;;;;2.65;0.98;;;;;;;24.25;39.86;99086.44;4127133;28;20261;-60
2022/06/13 09:41:27;;;;;;;3.65;1.30;;;;;;;23.88;40.03;99093.72;4139460;28;20291;-60
2022/06/13 09:43:32;;;;;;;1.70;1.20;;;;;;;23.55;40.30;99089.56;4122217;28;20229;-60
2022/06/13 09:45:46;;;;;;;4.10;1.17;;;;;;;23.20;39.68;99093.28;4136756;28;20225;-60
2022/06/13 09:47:58;;;;;;;15.35;1.45;;;;;;;23.54;41.15;99104.69;4126550;28;20301;-60
2022/06/13 09:50:09;;;;;;;2.92;1.10;;;;;;;23.59;38.36;99101.75;4137096;28;20229;-60
2022/06/13 09:52:18;;;;;;;2.95;0.80;;;;;;;23.83;39.10;99103.03;4125044;28;20317;-60
2022/06/13 09:54:44;;;;;;;1.95;0.98;;;;;;;24.34;37.94;99104.06;4110429;28;20226;-60
2022/06/13 09:57:12;;;;;;;2.80;1.20;;;;;;;24.86;40.13;99094.63;4137548;28;20216;-60
2022/06/13 09:59:13;;;;;;;2.95;1.08;;;;;;;25.15;38.63;99096.78;4121309;28;20209;-60
2022/06/13 10:01:22;;;;;;;3.35;1.08;;;;;;;25.32;36.20;99091.19;4119546;28;20630;-60
2022/06/13 10:03:30;;;;;;;1.95;0.88;;;;;;;25.60;38.18;99092.47;4121695;28;20231;-59
2022/06/13 10:05:53;;;;;;;4.70;1.00;;;;;;;25.86;37.25;99090.41;4124354;28;20240;-60
2022/06/13 10:08:19;;;;;;;6.20;1.52;;;;;;;25.84;35.92;99096.34;4123309;28;20214;-60
2022/06/13 10:11:00;;;;;;;2.70;1.08;;;;;;;25.29;36.67;99094.66;4137148;28;20210;-60